Main page
METAR-TAF:

METAR-TAF

Airports :

Ivato International Airport

Antananarivo, Madagascar

latitude: 18-48S, longitude: 047-29E, elevation: 1279 m

Current weather observation

The report was made 26 minutes ago, at 21:30 UTC
Wind 4 kt from the Southeast
Temperature 15°C
Humidity 82%
Pressure 1024 hPa
Visibility 10 km or more
Few clouds at a height of 1700 ft
Broken clouds at a height of 2000 ft

METAR: FMMI 172130Z 14004KT 9999 FEW017 BKN020 15/12 Q1024 NOSIG

Time: 00:56 (21:56 UTC)

Forecast

The report was made 4 hours and 56 minutes ago, at 17:00 UTC
Forecast valid from 17 at 18 UTC to 18 at 24 UTC
Wind 4 kt from variable directions
Visibility 10 km or more
Few clouds at a height of 1700 ft
Scattered clouds at a height of 2000 ft
Probability 30%
from 18 at 02 UTC to 18 at 06 UTC
Visibility: 0500 m
Broken clouds at a height of 400 ft
fog

TAF: FMMI 171700Z 1718/1824 VRB04KT 9999 FEW017 SCT020 PROB30 1802/1806 0500 FG BKN004

Weather observations and forecasts of more than 4000 airports (METAR and TAF reports).

The available stations are represented by yellow and red dots on the map.

Hover mouse over dot to see the name of the station.

Then click to see weather observations and forecasts.

To change the map : click on the green buttons with a black cross to zoom in, on the green button with a dash to zoom out, or on the green arrows for adjacent maps.


METAR-TAF: